createdAt,value
2018-03-23T00:00:53.588Z,3.80
2018-03-23T00:03:21.276Z,3.80
2018-03-23T00:05:48.946Z,3.80
2018-03-23T00:08:16.650Z,3.80
2018-03-23T00:10:44.349Z,3.90
2018-03-23T00:13:12.058Z,3.80
2018-03-23T00:15:40.507Z,3.80
2018-03-23T00:18:08.201Z,3.80
2018-03-23T00:20:35.867Z,3.90
2018-03-23T00:23:03.576Z,3.80
2018-03-23T00:25:32.045Z,3.90
2018-03-23T00:28:00.513Z,3.90
2018-03-23T00:30:28.218Z,3.90
2018-03-23T00:32:55.883Z,3.90
2018-03-23T00:35:23.610Z,3.90
2018-03-23T00:37:52.134Z,3.80
2018-03-23T00:40:19.850Z,3.80
2018-03-23T00:42:48.345Z,3.80
2018-03-23T00:45:16.154Z,3.80
2018-03-23T00:47:43.819Z,3.80
2018-03-23T00:50:11.526Z,3.80
2018-03-23T00:52:39.218Z,3.80
2018-03-23T00:55:07.646Z,3.80
2018-03-23T00:57:35.413Z,3.80
2018-03-23T01:00:03.148Z,3.80
2018-03-23T01:02:30.823Z,3.80
2018-03-23T01:04:58.539Z,3.80
2018-03-23T01:07:26.237Z,3.80
2018-03-23T01:09:54.724Z,3.80
2018-03-23T01:12:22.399Z,3.80
2018-03-23T01:14:50.083Z,3.80
2018-03-23T01:17:17.818Z,3.80
2018-03-23T01:19:45.568Z,3.80
2018-03-23T01:22:15.262Z,3.80
2018-03-23T01:24:43.114Z,3.80
2018-03-23T01:27:10.800Z,3.90
2018-03-23T01:29:38.524Z,3.80
2018-03-23T01:32:06.200Z,3.90
2018-03-23T01:34:33.967Z,3.80
2018-03-23T01:37:01.864Z,3.80
2018-03-23T01:39:29.714Z,3.80
2018-03-23T01:41:57.368Z,3.80
2018-03-23T01:44:25.074Z,3.80
2018-03-23T01:46:52.864Z,3.80
2018-03-23T01:49:20.713Z,3.80
2018-03-23T01:51:48.568Z,3.80
2018-03-23T01:54:16.416Z,3.80
2018-03-23T01:56:44.268Z,3.80
2018-03-23T01:59:12.736Z,3.80
2018-03-23T02:01:40.585Z,3.70
2018-03-23T02:04:08.437Z,3.70
2018-03-23T02:06:36.287Z,3.80
2018-03-23T02:09:04.140Z,3.80
2018-03-23T02:11:31.893Z,3.80
2018-03-23T02:13:59.743Z,3.80
2018-03-23T02:16:27.491Z,3.80
2018-03-23T02:18:55.345Z,3.80
2018-03-23T02:21:23.020Z,3.80
2018-03-23T02:23:51.666Z,3.80
2018-03-23T02:26:19.340Z,3.80
2018-03-23T02:28:47.780Z,3.80
2018-03-23T02:31:15.517Z,3.80
2018-03-23T02:33:43.209Z,3.80
2018-03-23T02:36:10.924Z,3.80
2018-03-23T02:38:38.609Z,3.80
2018-03-23T02:41:06.344Z,3.80
2018-03-23T02:43:34.810Z,3.80
2018-03-23T02:46:03.256Z,3.80
2018-03-23T02:48:30.971Z,3.80
2018-03-23T02:50:58.645Z,3.80
2018-03-23T02:53:26.342Z,3.90
2018-03-23T02:55:54.144Z,3.90
2018-03-23T02:58:21.859Z,3.90
2018-03-23T03:00:49.532Z,3.80
2018-03-23T03:03:17.245Z,3.80
2018-03-23T03:05:44.928Z,3.80
2018-03-23T03:08:12.599Z,3.80
2018-03-23T03:10:40.437Z,3.80
2018-03-23T03:13:08.191Z,3.80
2018-03-23T03:15:36.041Z,3.80
2018-03-23T03:18:04.152Z,3.80
2018-03-23T03:20:31.817Z,3.80
2018-03-23T03:22:59.536Z,3.80
2018-03-23T03:25:27.215Z,3.80
2018-03-23T03:27:55.095Z,3.80
2018-03-23T03:30:22.808Z,3.90
2018-03-23T03:32:50.559Z,3.90
2018-03-23T03:35:18.232Z,3.90
2018-03-23T03:37:45.989Z,3.80
2018-03-23T03:40:13.841Z,3.80
2018-03-23T03:42:41.692Z,3.90
2018-03-23T03:45:09.444Z,3.90
2018-03-23T03:47:37.232Z,3.80
2018-03-23T03:50:05.042Z,3.80
2018-03-23T03:52:32.768Z,3.90
2018-03-23T03:55:00.573Z,3.90
2018-03-23T03:57:29.055Z,3.90
2018-03-23T03:59:56.783Z,3.80
2018-03-23T04:02:25.267Z,3.90
2018-03-23T04:04:52.944Z,3.90
2018-03-23T04:07:20.667Z,3.90
2018-03-23T04:09:48.472Z,3.90
2018-03-23T04:12:16.324Z,3.90
2018-03-23T04:14:44.177Z,3.90
2018-03-23T04:17:12.030Z,3.90
2018-03-23T04:19:39.742Z,3.90
2018-03-23T04:22:07.488Z,3.90
2018-03-23T04:24:35.210Z,3.90
2018-03-23T04:27:03.653Z,4.00
2018-03-23T04:29:31.416Z,3.90
2018-03-23T04:31:59.859Z,4.00
2018-03-23T04:34:27.710Z,3.90
2018-03-23T04:36:55.388Z,4.00
2018-03-23T04:39:23.832Z,3.90
2018-03-23T04:41:51.552Z,3.90
2018-03-23T04:44:19.320Z,3.90
2018-03-23T04:46:47.172Z,3.90
2018-03-23T04:49:14.860Z,3.90
2018-03-23T04:51:42.671Z,3.90
2018-03-23T04:54:10.396Z,4.00
2018-03-23T04:56:38.120Z,3.90
2018-03-23T04:59:06.021Z,3.90
2018-03-23T05:01:33.884Z,3.90
2018-03-23T05:04:01.728Z,3.90
2018-03-23T05:06:29.579Z,3.90
2018-03-23T05:08:57.431Z,3.90
2018-03-23T05:11:25.181Z,3.90
2018-03-23T05:13:53.308Z,3.90
2018-03-23T05:16:21.088Z,3.80
2018-03-23T05:18:48.876Z,3.80
2018-03-23T05:21:17.405Z,3.90
2018-03-23T05:23:45.258Z,3.80
2018-03-23T05:26:13.110Z,3.90
2018-03-23T05:28:40.963Z,3.90
2018-03-23T05:31:08.918Z,3.90
2018-03-23T05:33:36.765Z,3.90
2018-03-23T05:36:04.618Z,3.90
2018-03-23T05:38:32.370Z,3.90
2018-03-23T05:41:00.236Z,3.90
2018-03-23T05:43:28.073Z,3.90
2018-03-23T05:45:55.928Z,3.90
2018-03-23T05:48:23.782Z,3.90
2018-03-23T05:50:51.628Z,3.90
2018-03-23T05:53:19.480Z,3.90
2018-03-23T05:55:47.160Z,4.00
2018-03-23T05:58:15.798Z,4.00
2018-03-23T06:00:43.649Z,3.90
2018-03-23T06:03:12.219Z,4.00
2018-03-23T06:05:40.074Z,3.90
2018-03-23T06:08:07.921Z,4.00
2018-03-23T06:10:35.670Z,4.00
2018-03-23T06:13:03.525Z,4.00
2018-03-23T06:15:31.274Z,4.00
2018-03-23T06:17:59.125Z,4.10
2018-03-23T06:20:26.876Z,4.10
2018-03-23T06:22:54.629Z,4.10
2018-03-23T06:25:22.475Z,4.10
2018-03-23T06:27:50.327Z,4.10
2018-03-23T06:30:18.024Z,4.10
2018-03-23T06:32:45.740Z,4.10
2018-03-23T06:35:14.291Z,4.10
2018-03-23T06:37:42.144Z,4.10
2018-03-23T06:40:09.895Z,4.10
2018-03-23T06:42:37.745Z,4.10
2018-03-23T06:45:05.596Z,4.10
2018-03-23T06:47:33.452Z,4.10
2018-03-23T06:50:01.200Z,4.10
2018-03-23T06:52:29.051Z,4.10
2018-03-23T06:54:56.903Z,4.10
2018-03-23T06:57:24.653Z,4.20
2018-03-23T06:59:52.402Z,4.30
2018-03-23T07:02:20.252Z,4.30
2018-03-23T07:04:48.002Z,4.40
2018-03-23T07:07:15.854Z,4.50
2018-03-23T07:09:43.707Z,4.40
2018-03-23T07:12:11.556Z,4.40
2018-03-23T07:14:39.415Z,4.40
2018-03-23T07:17:07.262Z,4.40
2018-03-23T07:19:35.113Z,4.30
2018-03-23T07:22:02.967Z,4.30
2018-03-23T07:24:30.821Z,4.30
2018-03-23T07:26:58.568Z,4.30
2018-03-23T07:29:26.359Z,4.20
2018-03-23T07:31:54.169Z,4.30
2018-03-23T07:34:21.900Z,4.30
2018-03-23T07:36:49.616Z,4.30
2018-03-23T07:39:17.415Z,4.30
2018-03-23T07:41:45.268Z,4.30
2018-03-23T07:44:13.055Z,4.30
2018-03-23T07:46:40.868Z,4.30
2018-03-23T07:49:09.647Z,4.40
2018-03-23T07:51:37.323Z,4.40
2018-03-23T07:54:05.960Z,4.40
2018-03-23T07:56:33.813Z,4.40
2018-03-23T07:59:01.538Z,4.40
2018-03-23T08:01:29.479Z,4.50
2018-03-23T08:03:57.375Z,4.40
2018-03-23T08:06:25.324Z,4.50
2018-03-23T08:08:53.177Z,4.50
2018-03-23T08:11:21.028Z,4.60
2018-03-23T08:13:48.877Z,4.50
2018-03-23T08:16:16.600Z,4.60
2018-03-23T08:18:44.479Z,4.60
2018-03-23T08:21:12.330Z,4.60
2018-03-23T08:23:40.080Z,4.70
2018-03-23T08:26:07.939Z,4.70
2018-03-23T08:28:37.396Z,4.70
2018-03-23T08:31:05.289Z,4.60
2018-03-23T08:33:32.988Z,4.70
2018-03-23T08:36:00.782Z,4.70
2018-03-23T08:38:28.627Z,4.70
2018-03-23T08:40:56.479Z,4.70
2018-03-23T08:43:24.331Z,4.70
2018-03-23T08:45:52.182Z,4.70
2018-03-23T08:48:20.035Z,4.70
2018-03-23T08:50:47.887Z,4.80
2018-03-23T08:53:15.737Z,4.80
2018-03-23T08:55:43.588Z,4.80
2018-03-23T08:58:11.440Z,4.80
2018-03-23T09:00:39.394Z,4.80
2018-03-23T09:03:07.246Z,4.80
2018-03-23T09:05:35.156Z,4.80
2018-03-23T09:08:03.055Z,4.80
2018-03-23T09:10:31.622Z,4.80
2018-03-23T09:12:59.474Z,4.80
2018-03-23T09:15:27.216Z,4.80
2018-03-23T09:17:55.016Z,4.80
2018-03-23T09:20:22.826Z,4.80
2018-03-23T09:22:50.676Z,4.90
2018-03-23T09:25:18.530Z,4.90
2018-03-23T09:27:46.380Z,4.90
2018-03-23T09:30:14.171Z,5.00
2018-03-23T09:32:41.997Z,5.00
2018-03-23T09:35:10.656Z,5.10
2018-03-23T09:37:38.335Z,5.00
2018-03-23T09:40:06.059Z,5.10
2018-03-23T09:42:33.905Z,5.10
2018-03-23T09:45:01.756Z,5.20
2018-03-23T09:47:29.503Z,5.20
2018-03-23T09:49:57.354Z,5.20
2018-03-23T09:52:26.130Z,5.30
2018-03-23T09:54:53.981Z,5.30
2018-03-23T09:57:21.835Z,5.40
2018-03-23T09:59:49.728Z,5.40
2018-03-23T10:02:17.636Z,5.40
2018-03-23T10:04:45.387Z,5.40
2018-03-23T10:07:13.250Z,5.40
2018-03-23T10:09:41.089Z,5.40
2018-03-23T10:12:08.943Z,5.50
2018-03-23T10:14:36.690Z,5.50
2018-03-23T10:17:04.651Z,5.50
2018-03-23T10:19:32.500Z,5.60
2018-03-23T10:22:00.357Z,5.60
2018-03-23T10:24:28.204Z,5.70
2018-03-23T10:26:55.954Z,5.70
2018-03-23T10:29:23.803Z,5.70
2018-03-23T10:31:51.552Z,5.70
2018-03-23T10:34:19.405Z,5.70
2018-03-23T10:36:47.255Z,5.80
2018-03-23T10:39:15.108Z,5.80
2018-03-23T10:41:42.962Z,5.90
2018-03-23T10:44:10.814Z,5.90
2018-03-23T10:46:38.661Z,5.90
2018-03-23T10:49:07.332Z,5.90
2018-03-23T10:51:35.080Z,5.90
2018-03-23T10:54:02.835Z,5.90
2018-03-23T10:56:30.689Z,6.00
2018-03-23T10:58:58.539Z,6.00
2018-03-23T11:01:32.239Z,6.00
2018-03-23T11:04:00.016Z,6.00
2018-03-23T11:06:27.724Z,6.10
2018-03-23T11:08:55.577Z,6.10
2018-03-23T11:11:23.326Z,6.10
2018-03-23T11:13:51.181Z,6.10
2018-03-23T11:16:19.028Z,6.10
2018-03-23T11:18:46.778Z,6.10
2018-03-23T11:21:14.629Z,6.10
2018-03-23T11:23:42.384Z,6.10
2018-03-23T11:26:10.279Z,6.10
2018-03-23T11:28:38.088Z,6.20
2018-03-23T11:31:05.935Z,6.10
2018-03-23T11:33:33.792Z,6.10
2018-03-23T11:36:01.641Z,6.10
2018-03-23T11:38:29.493Z,6.20
2018-03-23T11:40:57.343Z,6.20
2018-03-23T11:43:25.132Z,6.10
2018-03-23T11:45:52.944Z,6.10
2018-03-23T11:48:20.798Z,6.10
2018-03-23T11:50:48.702Z,6.10
2018-03-23T11:53:16.500Z,6.10
2018-03-23T11:55:44.350Z,6.10
2018-03-23T11:58:12.147Z,6.10
2018-03-23T12:00:39.889Z,6.10
2018-03-23T12:03:07.707Z,6.10
2018-03-23T12:05:35.449Z,6.10
2018-03-23T12:08:03.201Z,6.10
2018-03-23T12:10:31.060Z,6.10
2018-03-23T12:12:58.917Z,6.20
2018-03-23T12:15:26.761Z,6.20
2018-03-23T12:17:54.609Z,6.30
2018-03-23T12:20:22.437Z,6.30
2018-03-23T12:22:50.313Z,6.40
2018-03-23T12:25:18.000Z,6.40
2018-03-23T12:27:45.740Z,6.50
2018-03-23T12:30:14.380Z,6.50
2018-03-23T12:32:42.230Z,6.50
2018-03-23T12:35:09.911Z,6.50
2018-03-23T12:37:38.403Z,6.60
2018-03-23T12:40:06.113Z,6.60
2018-03-23T12:42:34.564Z,6.70
2018-03-23T12:45:03.242Z,6.70
2018-03-23T12:47:31.024Z,6.70
2018-03-23T12:49:58.835Z,6.70
2018-03-23T12:52:26.582Z,6.80
2018-03-23T12:54:54.434Z,6.80
2018-03-23T12:57:22.117Z,6.80
2018-03-23T12:59:50.752Z,6.80
2018-03-23T13:02:18.604Z,6.80
2018-03-23T13:04:46.455Z,6.80
2018-03-23T13:07:14.311Z,6.80
2018-03-23T13:09:42.062Z,6.80
2018-03-23T13:12:10.009Z,6.80
2018-03-23T13:14:37.765Z,6.80
2018-03-23T13:17:05.816Z,6.80
2018-03-23T13:19:33.675Z,6.80
2018-03-23T13:22:01.521Z,6.70
2018-03-23T13:24:29.373Z,6.70
2018-03-23T13:26:57.225Z,6.70
2018-03-23T13:29:24.986Z,6.70
2018-03-23T13:31:53.542Z,6.60
2018-03-23T13:34:21.394Z,6.60
2018-03-23T13:36:49.250Z,6.60
2018-03-23T13:39:17.097Z,6.60
2018-03-23T13:41:44.828Z,6.60
2018-03-23T13:44:12.596Z,6.50
2018-03-23T13:46:40.448Z,6.50
2018-03-23T13:49:08.405Z,6.50
2018-03-23T13:51:36.154Z,6.50
2018-03-23T13:54:03.948Z,6.50
2018-03-23T13:56:31.704Z,6.50
2018-03-23T13:59:05.031Z,6.50
2018-03-23T14:01:38.357Z,6.40
2018-03-23T14:04:06.060Z,6.40
2018-03-23T14:06:33.913Z,6.40
2018-03-23T14:09:01.766Z,6.50
2018-03-23T14:11:29.618Z,6.50
2018-03-23T14:13:57.471Z,6.50
2018-03-23T14:16:25.321Z,6.50
2018-03-23T14:18:53.172Z,6.50
2018-03-23T14:21:21.023Z,6.60
2018-03-23T14:23:48.778Z,6.60
2018-03-23T14:26:16.726Z,6.60
2018-03-23T14:28:44.583Z,6.60
2018-03-23T14:31:12.430Z,6.60
2018-03-23T14:33:40.282Z,6.60
2018-03-23T14:36:08.134Z,6.60
2018-03-23T14:38:35.985Z,6.70
2018-03-23T14:41:03.847Z,6.70
2018-03-23T14:43:31.589Z,6.70
2018-03-23T14:45:59.450Z,6.70
2018-03-23T14:48:28.112Z,6.70
2018-03-23T14:50:55.902Z,6.70
2018-03-23T14:53:23.711Z,6.70
2018-03-23T14:55:51.461Z,6.70
2018-03-23T14:58:19.315Z,6.80
2018-03-23T15:00:47.062Z,6.80
2018-03-23T15:03:14.915Z,6.80
2018-03-23T15:05:42.767Z,6.80
2018-03-23T15:08:10.617Z,6.80
2018-03-23T15:10:38.608Z,6.80
2018-03-23T15:13:06.423Z,6.80
2018-03-23T15:15:34.277Z,6.80
2018-03-23T15:18:02.128Z,6.70
2018-03-23T15:20:29.878Z,6.70
2018-03-23T15:22:57.746Z,6.70
2018-03-23T15:25:25.587Z,6.70
2018-03-23T15:27:53.433Z,6.70
2018-03-23T15:30:21.183Z,6.70
2018-03-23T15:32:49.044Z,6.70
2018-03-23T15:35:16.886Z,6.70
2018-03-23T15:37:44.738Z,6.70
2018-03-23T15:40:12.488Z,6.70
2018-03-23T15:42:40.340Z,6.60
2018-03-23T15:45:08.190Z,6.60
2018-03-23T15:47:35.880Z,6.60
2018-03-23T15:50:03.798Z,6.60
2018-03-23T15:52:31.647Z,6.60
2018-03-23T15:54:59.497Z,6.60
2018-03-23T15:57:27.350Z,6.60
2018-03-23T15:59:55.100Z,6.50
2018-03-23T16:02:22.965Z,6.50
2018-03-23T16:04:50.841Z,6.50
2018-03-23T16:07:18.654Z,6.50
2018-03-23T16:09:46.505Z,6.50
2018-03-23T16:12:14.308Z,6.50
2018-03-23T16:14:42.106Z,6.50
2018-03-23T16:17:09.958Z,6.50
2018-03-23T16:19:37.752Z,6.50
2018-03-23T16:22:05.507Z,6.50
2018-03-23T16:24:33.310Z,6.50
2018-03-23T16:27:01.165Z,6.60
2018-03-23T16:29:29.014Z,6.60
2018-03-23T16:31:56.906Z,6.60
2018-03-23T16:34:24.718Z,6.60
2018-03-23T16:36:52.570Z,6.60
2018-03-23T16:39:20.420Z,6.60
2018-03-23T16:41:48.272Z,6.60
2018-03-23T16:44:16.124Z,6.60
2018-03-23T16:46:43.975Z,6.60
2018-03-23T16:49:12.441Z,6.60
2018-03-23T16:51:40.202Z,6.50
2018-03-23T16:54:08.045Z,6.60
2018-03-23T16:56:35.893Z,6.50
2018-03-23T16:59:03.748Z,6.50
2018-03-23T17:01:31.498Z,6.50
2018-03-23T17:03:59.350Z,6.50
2018-03-23T17:06:27.103Z,6.50
2018-03-23T17:08:54.950Z,6.50
2018-03-23T17:11:22.807Z,6.40
2018-03-23T17:13:50.664Z,6.50
2018-03-23T17:16:18.505Z,6.40
2018-03-23T17:18:46.365Z,6.40
2018-03-23T17:21:14.153Z,6.40
2018-03-23T17:23:41.958Z,6.40
2018-03-23T17:26:09.810Z,6.40
2018-03-23T17:28:37.560Z,6.40
2018-03-23T17:31:05.514Z,6.30
2018-03-23T17:33:33.240Z,6.30
2018-03-23T17:36:01.910Z,6.30
2018-03-23T17:38:29.686Z,6.30
2018-03-23T17:40:57.540Z,6.20
2018-03-23T17:43:25.480Z,6.30
2018-03-23T17:45:53.241Z,6.20
2018-03-23T17:48:21.093Z,6.20
2018-03-23T17:50:48.984Z,6.20
2018-03-23T17:53:16.794Z,6.10
2018-03-23T17:55:44.545Z,6.10
2018-03-23T17:58:12.396Z,6.10
2018-03-23T18:00:40.248Z,6.10
2018-03-23T18:03:08.000Z,6.10
2018-03-23T18:05:35.850Z,6.10
2018-03-23T18:08:03.705Z,6.10
2018-03-23T18:10:31.555Z,6.00
2018-03-23T18:12:59.406Z,6.00
2018-03-23T18:15:27.299Z,6.00
2018-03-23T18:17:55.018Z,6.00
2018-03-23T18:20:22.859Z,6.00
2018-03-23T18:22:50.710Z,6.00
2018-03-23T18:25:18.565Z,6.00
2018-03-23T18:27:46.414Z,6.00
2018-03-23T18:30:14.163Z,6.00
2018-03-23T18:32:42.118Z,6.00
2018-03-23T18:35:10.481Z,6.00
2018-03-23T18:37:38.332Z,6.00
2018-03-23T18:40:06.086Z,6.00
2018-03-23T18:42:33.839Z,6.00
2018-03-23T18:45:01.557Z,6.00
2018-03-23T18:47:29.332Z,6.00
2018-03-23T18:49:57.061Z,6.00
2018-03-23T18:52:24.753Z,6.00
2018-03-23T18:54:52.508Z,5.90
2018-03-23T18:57:20.353Z,5.90
2018-03-23T18:59:48.899Z,5.90
2018-03-23T19:02:16.651Z,5.90
2018-03-23T19:04:44.502Z,5.90
2018-03-23T19:07:12.350Z,5.90
2018-03-23T19:09:40.036Z,5.90
2018-03-23T19:12:07.792Z,5.90
2018-03-23T19:14:35.496Z,5.90
2018-03-23T19:17:03.354Z,5.90
2018-03-23T19:19:31.204Z,5.90
2018-03-23T19:21:59.053Z,5.90
2018-03-23T19:24:26.905Z,5.90
2018-03-23T19:26:54.580Z,5.90
2018-03-23T19:29:23.088Z,5.90
2018-03-23T19:31:51.286Z,5.80
2018-03-23T19:34:24.785Z,5.90
2018-03-23T19:36:58.007Z,5.90
2018-03-23T19:39:30.679Z,5.90
2018-03-23T19:42:02.976Z,5.90
2018-03-23T19:44:36.272Z,6.00
2018-03-23T19:47:05.014Z,6.00
2018-03-23T19:49:36.345Z,5.90
2018-03-23T19:52:04.200Z,6.00
2018-03-23T19:54:32.054Z,6.00
2018-03-23T19:56:59.903Z,6.00
2018-03-23T19:59:27.652Z,6.00
2018-03-23T20:01:55.404Z,6.00
2018-03-23T20:04:24.525Z,6.00
2018-03-23T20:06:52.334Z,6.00
2018-03-23T20:09:20.187Z,6.00
2018-03-23T20:11:47.900Z,6.00
2018-03-23T20:14:15.686Z,6.00
2018-03-23T20:16:43.537Z,6.00
2018-03-23T20:19:11.388Z,5.90
2018-03-23T20:21:39.140Z,5.90
2018-03-23T20:24:12.387Z,5.90
2018-03-23T20:26:40.165Z,5.90
2018-03-23T20:29:07.960Z,5.90
2018-03-23T20:31:41.457Z,5.90
2018-03-23T20:34:09.196Z,5.90
2018-03-23T20:36:36.887Z,5.90
2018-03-23T20:39:04.752Z,5.80
2018-03-23T20:41:32.605Z,5.90
2018-03-23T20:44:00.458Z,5.80
2018-03-23T20:46:28.206Z,5.90
2018-03-23T20:48:56.057Z,5.80
2018-03-23T20:51:23.917Z,5.80
2018-03-23T20:53:56.528Z,5.80
2018-03-23T20:56:24.425Z,5.80
2018-03-23T20:58:52.220Z,5.80
2018-03-23T21:01:19.963Z,5.80
2018-03-23T21:03:47.775Z,5.80
2018-03-23T21:06:15.460Z,5.80
2018-03-23T21:08:43.271Z,5.80
2018-03-23T21:11:11.125Z,5.80
2018-03-23T21:13:38.976Z,5.80
2018-03-23T21:16:06.830Z,5.80
2018-03-23T21:18:34.683Z,5.70
2018-03-23T21:21:02.538Z,5.70
2018-03-23T21:23:30.385Z,5.80
2018-03-23T21:25:58.148Z,5.70
2018-03-23T21:28:25.987Z,5.80
2018-03-23T21:30:53.837Z,5.80
2018-03-23T21:33:21.586Z,5.80
2018-03-23T21:35:49.335Z,5.70
2018-03-23T21:38:17.188Z,5.70
2018-03-23T21:40:45.041Z,5.70
2018-03-23T21:43:12.787Z,5.80
2018-03-23T21:45:40.479Z,5.70
2018-03-23T21:48:08.228Z,5.80
2018-03-23T21:50:36.037Z,5.70
2018-03-23T21:53:03.788Z,5.70
2018-03-23T21:55:31.640Z,5.80
2018-03-23T21:57:59.500Z,5.70
2018-03-23T22:00:27.345Z,5.70
2018-03-23T22:02:55.041Z,5.70
2018-03-23T22:05:22.844Z,5.70
2018-03-23T22:07:50.694Z,5.70
2018-03-23T22:10:18.488Z,5.70
2018-03-23T22:12:46.337Z,5.70
2018-03-23T22:15:14.146Z,5.70
2018-03-23T22:17:41.827Z,5.70
2018-03-23T22:20:10.468Z,5.70
2018-03-23T22:22:38.315Z,5.60
2018-03-23T22:25:06.066Z,5.70
2018-03-23T22:27:34.068Z,5.70
2018-03-23T22:30:01.875Z,5.70
2018-03-23T22:32:29.731Z,5.70
2018-03-23T22:34:57.580Z,5.60
2018-03-23T22:37:25.280Z,5.60
2018-03-23T22:39:53.076Z,5.60
2018-03-23T22:42:20.927Z,5.60
2018-03-23T22:44:48.779Z,5.60
2018-03-23T22:47:16.460Z,5.60
2018-03-23T22:49:44.278Z,5.60
2018-03-23T22:52:11.960Z,5.60
2018-03-23T22:54:40.597Z,5.60
2018-03-23T22:57:08.449Z,5.50
2018-03-23T22:59:36.298Z,5.60
2018-03-23T23:02:04.036Z,5.50
2018-03-23T23:04:31.799Z,5.50
2018-03-23T23:06:59.651Z,5.50
2018-03-23T23:09:27.503Z,5.50
2018-03-23T23:11:55.354Z,5.50
2018-03-23T23:14:23.210Z,5.50
2018-03-23T23:16:51.008Z,5.50
2018-03-23T23:19:18.912Z,5.50
2018-03-23T23:21:46.601Z,5.50
2018-03-23T23:24:14.323Z,5.50
2018-03-23T23:26:42.874Z,5.40
2018-03-23T23:29:10.629Z,5.40
2018-03-23T23:31:38.475Z,5.40
2018-03-23T23:34:06.326Z,5.40
2018-03-23T23:36:34.181Z,5.40
2018-03-23T23:39:01.973Z,5.40
2018-03-23T23:41:29.783Z,5.40
2018-03-23T23:43:57.634Z,5.40
2018-03-23T23:46:25.428Z,5.40
2018-03-23T23:48:53.235Z,5.30
2018-03-23T23:51:21.089Z,5.30
2018-03-23T23:53:48.938Z,5.20
2018-03-23T23:56:16.791Z,5.20
2018-03-23T23:58:44.643Z,5.20
